createdAt,value
2018-06-10T00:00:33.145Z,47.70
2018-06-10T00:03:01.229Z,48.50
2018-06-10T00:05:29.312Z,48.30
2018-06-10T00:10:25.257Z,48.30
2018-06-10T00:12:53.341Z,48.20
2018-06-10T00:15:21.428Z,48.40
2018-06-10T00:17:49.503Z,48.80
2018-06-10T00:20:17.590Z,49.20
2018-06-10T00:22:45.660Z,50.40
2018-06-10T00:25:13.749Z,49.50
2018-06-10T00:27:41.829Z,49.70
2018-06-10T00:30:09.935Z,50.90
2018-06-10T00:32:38.013Z,51.60
2018-06-10T00:35:06.152Z,49.40
2018-06-10T00:37:34.221Z,49.20
2018-06-10T00:40:02.304Z,50.10
2018-06-10T00:42:30.387Z,50.80
2018-06-10T00:47:26.386Z,50.00
2018-06-10T00:49:54.481Z,50.90
2018-06-10T00:52:22.561Z,50.70
2018-06-10T00:54:50.648Z,51.40
2018-06-10T00:57:18.730Z,51.00
2018-06-10T00:59:46.834Z,51.40
2018-06-10T01:02:14.909Z,51.30
2018-06-10T01:04:42.992Z,51.40
2018-06-10T01:07:11.073Z,50.80
2018-06-10T01:12:07.267Z,51.30
2018-06-10T01:14:35.340Z,51.30
2018-06-10T01:17:03.413Z,51.30
2018-06-10T01:19:31.493Z,51.60
2018-06-10T01:21:59.577Z,51.60
2018-06-10T01:24:27.658Z,52.80
2018-06-10T01:26:55.749Z,53.20
2018-06-10T01:29:23.838Z,52.70
2018-06-10T01:31:51.931Z,52.10
2018-06-10T01:34:20.030Z,51.30
2018-06-10T01:36:48.121Z,51.30
2018-06-10T01:39:16.202Z,51.80
2018-06-10T01:41:44.284Z,52.40
2018-06-10T01:44:12.361Z,51.20
2018-06-10T01:46:40.449Z,48.90
2018-06-10T01:49:08.538Z,49.80
2018-06-10T01:51:36.616Z,50.40
2018-06-10T01:54:04.844Z,50.20
2018-06-10T01:56:32.924Z,48.50
2018-06-10T01:59:01.001Z,48.30
2018-06-10T02:01:29.128Z,48.80
2018-06-10T02:03:57.212Z,49.30
2018-06-10T02:06:25.292Z,49.60
2018-06-10T02:08:53.401Z,50.00
2018-06-10T02:11:21.489Z,50.20
2018-06-10T02:13:49.569Z,50.30
2018-06-10T02:16:17.657Z,50.50
2018-06-10T02:18:45.745Z,51.10
2018-06-10T02:23:41.692Z,51.80
2018-06-10T02:26:09.773Z,51.70
2018-06-10T02:28:37.853Z,52.20
2018-06-10T02:31:05.973Z,52.40
2018-06-10T02:33:34.060Z,52.80
2018-06-10T02:36:02.162Z,53.40
2018-06-10T02:38:30.238Z,53.40
2018-06-10T02:40:58.330Z,53.60
2018-06-10T02:43:26.405Z,53.90
2018-06-10T02:45:54.492Z,54.00
2018-06-10T02:48:22.573Z,54.10
2018-06-10T02:50:50.678Z,54.50
2018-06-10T02:53:18.754Z,54.40
2018-06-10T02:55:46.830Z,53.50
2018-06-10T02:58:14.918Z,53.70
2018-06-10T03:00:42.984Z,53.50
2018-06-10T03:03:11.068Z,54.00
2018-06-10T03:05:39.142Z,54.00
2018-06-10T03:08:07.241Z,54.40
2018-06-10T03:10:35.313Z,54.40
2018-06-10T03:13:03.530Z,54.50
2018-06-10T03:15:31.713Z,55.30
2018-06-10T03:17:59.789Z,54.80
2018-06-10T03:20:27.950Z,54.20
2018-06-10T03:22:56.042Z,54.60
2018-06-10T03:25:24.113Z,54.90
2018-06-10T03:27:52.202Z,55.30
2018-06-10T03:30:20.281Z,55.60
2018-06-10T03:32:48.365Z,55.30
2018-06-10T03:35:16.462Z,55.30
2018-06-10T03:37:44.579Z,55.30
2018-06-10T03:40:12.637Z,55.60
2018-06-10T03:42:40.729Z,54.90
2018-06-10T03:45:08.817Z,54.20
2018-06-10T03:47:36.896Z,55.00
2018-06-10T03:50:04.990Z,55.00
2018-06-10T03:52:33.077Z,55.30
2018-06-10T03:55:01.149Z,55.30
2018-06-10T03:57:29.225Z,55.40
2018-06-10T03:59:57.313Z,55.30
2018-06-10T04:02:25.381Z,55.60
2018-06-10T04:04:53.473Z,55.20
2018-06-10T04:07:21.548Z,55.20
2018-06-10T04:09:49.635Z,53.60
2018-06-10T04:12:17.712Z,53.70
2018-06-10T04:14:45.805Z,53.90
2018-06-10T04:17:13.876Z,52.50
2018-06-10T04:19:41.961Z,51.90
2018-06-10T04:22:10.133Z,52.10
2018-06-10T04:24:38.216Z,52.60
2018-06-10T04:27:06.298Z,52.10
2018-06-10T04:29:34.389Z,51.90
2018-06-10T04:32:02.725Z,51.80
2018-06-10T04:34:30.808Z,50.80
2018-06-10T04:36:58.889Z,49.70
2018-06-10T04:39:26.977Z,50.60
2018-06-10T04:41:55.062Z,50.70
2018-06-10T04:44:23.136Z,50.80
2018-06-10T04:46:51.218Z,51.20
2018-06-10T04:49:19.301Z,51.20
2018-06-10T04:51:47.385Z,51.90
2018-06-10T04:54:15.474Z,52.40
2018-06-10T04:56:43.549Z,53.30
2018-06-10T04:59:11.676Z,54.40
2018-06-10T05:01:39.744Z,51.40
2018-06-10T05:04:08.711Z,50.50
2018-06-10T05:06:36.773Z,50.40
2018-06-10T05:09:06.512Z,49.70
2018-06-10T05:11:34.598Z,50.10
2018-06-10T05:14:02.686Z,50.60
2018-06-10T05:16:30.777Z,50.70
2018-06-10T05:18:58.852Z,51.00
2018-06-10T05:21:26.940Z,51.10
2018-06-10T05:23:55.026Z,50.50
2018-06-10T05:26:23.113Z,50.70
2018-06-10T05:31:19.121Z,48.80
2018-06-10T05:33:47.229Z,50.10
2018-06-10T05:36:15.329Z,49.30
2018-06-10T05:38:43.424Z,49.10
2018-06-10T05:41:11.517Z,49.30
2018-06-10T05:43:39.593Z,48.70
2018-06-10T05:48:35.609Z,49.80
2018-06-10T05:51:03.777Z,51.80
2018-06-10T05:53:31.850Z,51.00
2018-06-10T05:55:59.941Z,48.90
2018-06-10T06:00:55.978Z,48.50
2018-06-10T06:03:24.058Z,47.80
2018-06-10T06:05:52.190Z,47.70
2018-06-10T06:08:20.285Z,48.90
2018-06-10T06:10:48.386Z,49.90
2018-06-10T06:13:16.504Z,49.50
2018-06-10T06:15:44.570Z,50.20
2018-06-10T06:18:12.657Z,47.00
2018-06-10T06:20:40.753Z,47.30
2018-06-10T06:23:08.846Z,45.80
2018-06-10T06:25:36.945Z,47.40
2018-06-10T06:28:05.033Z,47.50
2018-06-10T06:30:33.121Z,48.30
2018-06-10T06:33:01.205Z,47.00
2018-06-10T06:35:29.308Z,47.60
2018-06-10T06:37:57.390Z,46.10
2018-06-10T06:40:25.489Z,46.40
2018-06-10T06:42:53.581Z,47.10
2018-06-10T06:45:21.673Z,46.60
2018-06-10T06:47:49.756Z,45.70
2018-06-10T06:50:17.984Z,43.20
2018-06-10T06:52:46.066Z,45.00
2018-06-10T06:55:14.157Z,46.10
2018-06-10T06:57:42.253Z,47.00
2018-06-10T07:00:10.345Z,46.60
2018-06-10T07:02:38.433Z,44.50
2018-06-10T07:05:06.521Z,45.10
2018-06-10T07:07:34.618Z,46.60
2018-06-10T07:10:02.702Z,47.00
2018-06-10T07:12:30.793Z,47.40
2018-06-10T07:14:58.925Z,48.20
2018-06-10T07:17:27.031Z,46.30
2018-06-10T07:19:55.123Z,45.10
2018-06-10T07:22:23.222Z,46.80
2018-06-10T07:24:51.326Z,44.50
2018-06-10T07:27:19.705Z,45.90
2018-06-10T07:29:47.793Z,41.20
2018-06-10T07:32:15.898Z,39.90
2018-06-10T07:34:44.249Z,41.30
2018-06-10T07:37:12.342Z,42.00
2018-06-10T07:39:40.417Z,41.80
2018-06-10T07:42:08.517Z,39.50
2018-06-10T07:47:04.543Z,39.80
2018-06-10T07:49:32.620Z,41.30
2018-06-10T07:52:00.712Z,39.60
2018-06-10T07:54:28.805Z,39.60
2018-06-10T07:56:56.975Z,39.50
2018-06-10T07:59:25.066Z,39.00
2018-06-10T08:01:53.160Z,40.10
2018-06-10T08:04:21.248Z,41.50
2018-06-10T08:06:49.357Z,43.70
2018-06-10T08:09:17.456Z,43.50
2018-06-10T08:11:45.549Z,42.40
2018-06-10T08:14:13.637Z,40.50
2018-06-10T08:16:41.741Z,41.20
2018-06-10T08:19:09.829Z,35.70
2018-06-10T08:21:37.922Z,39.50
2018-06-10T08:24:06.061Z,41.00
2018-06-10T08:26:34.183Z,41.40
2018-06-10T08:29:02.267Z,42.60
2018-06-10T08:31:30.379Z,40.10
2018-06-10T08:33:59.313Z,39.60
2018-06-10T08:36:27.449Z,36.60
2018-06-10T08:38:55.530Z,33.30
2018-06-10T08:41:23.629Z,37.30
2018-06-10T08:43:51.805Z,38.00
2018-06-10T08:46:19.841Z,37.00
2018-06-10T08:48:47.937Z,36.80
2018-06-10T08:51:16.030Z,35.60
2018-06-10T08:53:50.852Z,34.50
2018-06-10T08:58:46.811Z,34.80
2018-06-10T09:01:14.885Z,34.80
2018-06-10T09:03:42.981Z,35.80
2018-06-10T09:06:11.074Z,35.50
2018-06-10T09:08:39.187Z,35.10
2018-06-10T09:11:07.284Z,32.00
2018-06-10T09:13:35.377Z,33.50
2018-06-10T09:16:03.462Z,32.10
2018-06-10T09:18:31.582Z,31.20
2018-06-10T09:20:59.658Z,31.10
2018-06-10T09:23:27.738Z,31.00
2018-06-10T09:25:55.817Z,32.40
2018-06-10T09:28:24.105Z,33.90
2018-06-10T09:30:52.185Z,34.00
2018-06-10T09:33:20.274Z,33.90
2018-06-10T09:35:48.358Z,34.10
2018-06-10T09:38:16.441Z,33.50
2018-06-10T09:40:44.526Z,35.70
2018-06-10T09:45:40.513Z,33.70
2018-06-10T09:48:08.600Z,35.30
2018-06-10T09:50:36.682Z,31.70
2018-06-10T09:53:04.890Z,32.30
2018-06-10T09:55:33.181Z,30.60
2018-06-10T09:58:01.065Z,28.00
2018-06-10T10:00:29.141Z,27.40
2018-06-10T10:02:57.229Z,28.10
2018-06-10T10:05:25.316Z,26.10
2018-06-10T10:07:53.398Z,27.80
2018-06-10T10:10:21.830Z,27.90
2018-06-10T10:12:49.917Z,27.60
2018-06-10T10:15:17.997Z,27.00
2018-06-10T10:17:46.092Z,28.30
2018-06-10T10:20:14.175Z,26.80
2018-06-10T10:22:42.273Z,26.50
2018-06-10T10:25:10.362Z,24.20
2018-06-10T10:27:38.445Z,24.10
2018-06-10T10:30:06.530Z,25.20
2018-06-10T10:32:34.611Z,23.80
2018-06-10T10:35:02.706Z,22.80
2018-06-10T10:37:30.786Z,24.40
2018-06-10T10:39:58.904Z,25.10
2018-06-10T10:42:26.982Z,22.70
2018-06-10T10:44:55.076Z,22.70
2018-06-10T10:47:23.162Z,23.30
2018-06-10T10:49:51.245Z,24.90
2018-06-10T10:52:19.322Z,25.30
2018-06-10T10:54:47.397Z,25.20
2018-06-10T10:57:15.481Z,24.80
2018-06-10T10:59:43.564Z,26.30
2018-06-10T11:02:11.650Z,25.40
2018-06-10T11:04:39.791Z,27.50
2018-06-10T11:07:07.852Z,31.70
2018-06-10T11:09:35.940Z,33.10
2018-06-10T11:12:04.018Z,29.80
2018-06-10T11:14:32.109Z,34.70
2018-06-10T11:17:00.190Z,35.70
2018-06-10T11:19:28.297Z,30.90
2018-06-10T11:21:56.375Z,27.80
2018-06-10T11:24:24.457Z,27.00
2018-06-10T11:26:52.533Z,26.40
2018-06-10T11:29:20.616Z,29.40
2018-06-10T11:31:48.696Z,28.20
2018-06-10T11:34:16.793Z,28.80
2018-06-10T11:36:44.878Z,28.20
2018-06-10T11:39:12.965Z,28.90
2018-06-10T11:41:41.126Z,27.10
2018-06-10T11:44:09.217Z,22.60
2018-06-10T11:46:37.290Z,26.60
2018-06-10T11:49:05.369Z,24.00
2018-06-10T11:51:33.458Z,23.90
2018-06-10T11:54:01.538Z,24.50
2018-06-10T11:56:29.624Z,25.30
2018-06-10T11:58:57.700Z,23.50
2018-06-10T12:01:25.796Z,18.80
2018-06-10T12:03:53.883Z,21.20
2018-06-10T12:06:21.961Z,21.30
2018-06-10T12:08:50.038Z,22.00
2018-06-10T12:11:18.120Z,22.70
2018-06-10T12:13:46.230Z,16.90
2018-06-10T12:16:14.296Z,15.30
2018-06-10T12:18:42.373Z,15.20
2018-06-10T12:21:10.463Z,15.00
2018-06-10T12:23:38.534Z,18.10
2018-06-10T12:26:06.613Z,14.70
2018-06-10T12:28:34.697Z,20.80
2018-06-10T12:31:02.785Z,19.70
2018-06-10T12:33:30.865Z,17.20
2018-06-10T12:35:58.960Z,19.50
2018-06-10T12:38:27.066Z,19.70
2018-06-10T12:40:55.197Z,15.00
2018-06-10T12:43:23.286Z,14.20
2018-06-10T12:45:51.361Z,9.80
2018-06-10T12:48:19.445Z,12.10
2018-06-10T12:50:47.525Z,9.20
2018-06-10T12:53:15.632Z,12.50
2018-06-10T12:55:43.713Z,11.90
2018-06-10T12:58:11.802Z,11.20
2018-06-10T13:03:07.753Z,10.00
2018-06-10T13:05:35.850Z,9.10
2018-06-10T13:08:03.937Z,5.00
2018-06-10T13:10:32.014Z,4.70
2018-06-10T13:13:00.110Z,5.10
2018-06-10T13:15:28.176Z,4.00
2018-06-10T13:17:56.252Z,3.50
2018-06-10T13:20:24.341Z,1.00
2018-06-10T13:22:52.425Z,1.00
2018-06-10T13:25:20.510Z,1.00
2018-06-10T13:27:48.590Z,1.00
2018-06-10T13:30:16.654Z,1.00
2018-06-10T13:32:44.728Z,1.00
2018-06-10T13:35:12.814Z,1.00
2018-06-10T13:37:40.894Z,1.00
2018-06-10T13:40:08.989Z,1.00
2018-06-10T13:45:04.933Z,2.80
2018-06-10T13:47:33.021Z,3.60
2018-06-10T13:50:01.110Z,2.20
2018-06-10T13:52:29.189Z,2.50
2018-06-10T13:54:57.265Z,3.50
2018-06-10T13:57:25.358Z,3.10
2018-06-10T13:59:53.438Z,2.90
2018-06-10T14:02:21.548Z,3.80
2018-06-10T14:04:49.646Z,3.60
2018-06-10T14:07:17.717Z,3.00
2018-06-10T14:09:45.807Z,1.80
2018-06-10T14:12:13.872Z,1.00
2018-06-10T14:14:41.953Z,1.00
2018-06-10T14:17:10.025Z,1.50
2018-06-10T14:19:38.128Z,1.30
2018-06-10T14:22:06.261Z,2.20
2018-06-10T14:24:34.341Z,2.20
2018-06-10T14:27:02.418Z,2.70
2018-06-10T14:29:30.510Z,2.70
2018-06-10T14:31:58.584Z,4.00
2018-06-10T14:34:26.678Z,3.80
2018-06-10T14:36:54.751Z,4.40
2018-06-10T14:39:22.837Z,5.30
2018-06-10T14:41:50.909Z,5.10
2018-06-10T14:44:18.997Z,6.20
2018-06-10T14:46:47.073Z,5.30
2018-06-10T14:49:15.157Z,6.10
2018-06-10T14:51:43.233Z,6.70
2018-06-10T14:54:11.305Z,6.80
2018-06-10T14:56:39.380Z,6.20
2018-06-10T14:59:07.461Z,5.90
2018-06-10T15:01:35.560Z,5.50
2018-06-10T15:04:03.642Z,5.10
2018-06-10T15:06:31.730Z,4.50
2018-06-10T15:08:59.801Z,6.60
2018-06-10T15:11:27.877Z,4.60
2018-06-10T15:13:55.953Z,5.70
2018-06-10T15:16:24.037Z,6.50
2018-06-10T15:18:52.120Z,9.10
2018-06-10T15:21:20.193Z,5.20
2018-06-10T15:23:48.282Z,5.40
2018-06-10T15:26:16.367Z,6.10
2018-06-10T15:28:44.483Z,6.20
2018-06-10T15:31:12.539Z,6.80
2018-06-10T15:33:40.634Z,6.30
2018-06-10T15:36:08.720Z,7.20
2018-06-10T15:38:36.793Z,8.50
2018-06-10T15:41:04.881Z,7.40
2018-06-10T15:43:32.940Z,9.20
2018-06-10T15:46:01.026Z,6.50
2018-06-10T15:48:29.120Z,7.10
2018-06-10T15:50:57.205Z,9.00
2018-06-10T15:53:25.298Z,9.50
2018-06-10T15:55:53.380Z,10.50
2018-06-10T16:00:49.328Z,11.40
2018-06-10T16:03:17.429Z,12.20
2018-06-10T16:05:45.505Z,11.90
2018-06-10T16:08:13.597Z,10.80
2018-06-10T16:10:41.678Z,10.90
2018-06-10T16:13:09.916Z,10.70
2018-06-10T16:15:37.997Z,11.00
2018-06-10T16:18:06.090Z,11.60
2018-06-10T16:20:34.165Z,12.00
2018-06-10T16:23:02.258Z,12.10
2018-06-10T16:25:30.393Z,12.20
2018-06-10T16:27:58.486Z,12.50
2018-06-10T16:30:26.570Z,13.50
2018-06-10T16:32:55.929Z,13.10
2018-06-10T16:35:30.436Z,13.60
2018-06-10T16:37:58.565Z,13.40
2018-06-10T16:40:26.633Z,13.30
2018-06-10T16:42:54.722Z,13.40
2018-06-10T16:45:22.801Z,14.00
2018-06-10T16:47:50.881Z,14.90
2018-06-10T16:50:18.965Z,15.10
2018-06-10T16:52:47.061Z,14.80
2018-06-10T16:55:15.134Z,15.30
2018-06-10T16:57:43.213Z,15.70
2018-06-10T17:00:11.301Z,16.30
2018-06-10T17:02:39.385Z,16.80
2018-06-10T17:05:07.484Z,16.00
2018-06-10T17:07:35.557Z,17.20
2018-06-10T17:10:03.662Z,17.10
2018-06-10T17:12:31.773Z,17.60
2018-06-10T17:14:59.857Z,17.90
2018-06-10T17:17:27.942Z,17.50
2018-06-10T17:19:56.034Z,17.90
2018-06-10T17:22:24.121Z,19.60
2018-06-10T17:24:52.212Z,21.30
2018-06-10T17:27:20.281Z,20.90
2018-06-10T17:29:48.364Z,21.10
2018-06-10T17:32:16.450Z,22.00
2018-06-10T17:34:44.551Z,21.90
2018-06-10T17:37:12.621Z,22.50
2018-06-10T17:39:40.740Z,22.70
2018-06-10T17:42:08.833Z,22.30
2018-06-10T17:44:36.922Z,22.10
2018-06-10T17:47:05.045Z,21.20
2018-06-10T17:49:33.142Z,20.80
2018-06-10T17:52:01.241Z,20.50
2018-06-10T17:54:29.338Z,20.50
2018-06-10T17:56:57.433Z,20.80
2018-06-10T17:59:25.516Z,20.50
2018-06-10T18:04:21.487Z,20.70
2018-06-10T18:06:49.618Z,21.10
2018-06-10T18:09:17.749Z,22.10
2018-06-10T18:11:46.137Z,22.20
2018-06-10T18:14:14.245Z,22.70
2018-06-10T18:19:10.219Z,23.40
2018-06-10T18:21:38.409Z,22.80
2018-06-10T18:24:06.530Z,23.60
2018-06-10T18:29:02.489Z,23.00
2018-06-10T18:31:30.595Z,23.30
2018-06-10T18:33:58.693Z,23.20
2018-06-10T18:36:26.797Z,23.30
2018-06-10T18:38:54.901Z,23.80
2018-06-10T18:41:22.989Z,24.80
2018-06-10T18:43:51.085Z,24.60
2018-06-10T18:48:47.055Z,23.90
2018-06-10T18:51:15.173Z,23.00
2018-06-10T18:53:43.269Z,21.80
2018-06-10T18:56:11.366Z,21.10
2018-06-10T18:58:39.501Z,19.90
2018-06-10T19:01:07.618Z,26.00
2018-06-10T19:03:35.752Z,22.60
2018-06-10T19:06:03.819Z,22.40
2018-06-10T19:08:31.925Z,22.80
2018-06-10T19:11:00.028Z,22.00
2018-06-10T19:13:28.118Z,22.40
2018-06-10T19:15:56.210Z,22.90
2018-06-10T19:18:24.302Z,23.30
2018-06-10T19:20:52.391Z,22.90
2018-06-10T19:23:20.474Z,24.60
2018-06-10T19:25:48.566Z,25.30
2018-06-10T19:28:16.649Z,26.60
2018-06-10T19:30:44.733Z,26.40
2018-06-10T19:33:12.862Z,25.60
2018-06-10T19:35:41.095Z,25.30
2018-06-10T19:38:09.179Z,25.40
2018-06-10T19:40:37.274Z,24.60
2018-06-10T19:43:05.353Z,24.00
2018-06-10T19:45:35.642Z,24.00
2018-06-10T19:48:03.753Z,24.10
2018-06-10T19:50:31.849Z,24.20
2018-06-10T19:52:59.945Z,25.10
2018-06-10T19:55:28.033Z,25.60
2018-06-10T19:57:56.159Z,27.00
2018-06-10T20:00:24.228Z,27.20
2018-06-10T20:02:52.313Z,26.50
2018-06-10T20:05:20.397Z,26.70
2018-06-10T20:07:48.499Z,27.00
2018-06-10T20:10:16.572Z,26.50
2018-06-10T20:12:44.666Z,26.30
2018-06-10T20:15:12.744Z,27.20
2018-06-10T20:17:40.834Z,27.10
2018-06-10T20:20:08.954Z,27.20
2018-06-10T20:22:37.083Z,27.80
2018-06-10T20:25:05.313Z,28.70
2018-06-10T20:27:33.405Z,28.70
2018-06-10T20:30:01.520Z,28.20
2018-06-10T20:32:29.588Z,28.90
2018-06-10T20:34:57.687Z,29.50
2018-06-10T20:37:25.776Z,28.60
2018-06-10T20:39:53.853Z,28.70
2018-06-10T20:42:21.965Z,28.10
2018-06-10T20:44:50.053Z,28.40
2018-06-10T20:47:18.138Z,28.40
2018-06-10T20:49:46.221Z,28.80
2018-06-10T20:52:14.313Z,29.60
2018-06-10T20:54:42.402Z,29.20
2018-06-10T20:57:10.517Z,29.30
2018-06-10T20:59:38.618Z,29.90
2018-06-10T21:02:06.701Z,28.80
2018-06-10T21:04:34.792Z,29.00
2018-06-10T21:09:30.741Z,29.80
2018-06-10T21:11:58.830Z,30.90
2018-06-10T21:14:26.937Z,30.70
2018-06-10T21:16:55.026Z,31.60
2018-06-10T21:19:23.133Z,31.60
2018-06-10T21:21:51.229Z,33.10
2018-06-10T21:24:19.321Z,33.20
2018-06-10T21:26:47.401Z,32.90
2018-06-10T21:29:15.509Z,35.10
2018-06-10T21:34:11.466Z,38.30
2018-06-10T21:36:39.565Z,38.90
2018-06-10T21:39:08.341Z,39.70
2018-06-10T21:41:36.541Z,39.70
2018-06-10T21:44:04.616Z,39.60
2018-06-10T21:46:32.709Z,39.60
2018-06-10T21:49:00.793Z,40.00
2018-06-10T21:51:28.884Z,40.60
2018-06-10T21:53:56.977Z,40.90
2018-06-10T21:56:25.070Z,40.70
2018-06-10T21:58:53.157Z,40.70
2018-06-10T22:01:21.269Z,41.80
2018-06-10T22:03:49.360Z,42.20
2018-06-10T22:06:17.455Z,42.00
2018-06-10T22:08:45.529Z,43.30
2018-06-10T22:11:13.629Z,43.80
2018-06-10T22:16:09.577Z,44.10
2018-06-10T22:18:38.483Z,44.20
2018-06-10T22:21:06.623Z,46.30
2018-06-10T22:23:34.652Z,48.20
2018-06-10T22:26:02.740Z,46.10
2018-06-10T22:28:30.829Z,45.90
2018-06-10T22:30:58.916Z,47.60
2018-06-10T22:33:26.992Z,48.30
2018-06-10T22:35:55.097Z,49.90
2018-06-10T22:38:23.178Z,49.30
2018-06-10T22:40:51.273Z,48.30
2018-06-10T22:43:19.353Z,47.20
2018-06-10T22:45:47.454Z,47.00
2018-06-10T22:48:15.538Z,45.30
2018-06-10T22:50:43.634Z,46.60
2018-06-10T22:54:20.198Z,46.00
2018-06-10T22:56:48.290Z,47.70
2018-06-10T22:59:16.381Z,49.60
2018-06-10T23:01:44.470Z,46.30
2018-06-10T23:06:40.438Z,43.10
2018-06-10T23:09:08.526Z,44.60
2018-06-10T23:11:36.617Z,43.30
2018-06-10T23:14:04.702Z,43.90
2018-06-10T23:16:32.798Z,41.90
2018-06-10T23:19:00.877Z,43.30
2018-06-10T23:21:28.982Z,44.70
2018-06-10T23:23:57.074Z,44.30
2018-06-10T23:26:25.168Z,44.30
2018-06-10T23:28:53.250Z,43.70
2018-06-10T23:33:49.197Z,43.50
2018-06-10T23:36:17.317Z,42.50
2018-06-10T23:38:45.394Z,42.80
2018-06-10T23:41:13.494Z,42.30
2018-06-10T23:43:41.581Z,42.60
2018-06-10T23:46:09.673Z,40.80
2018-06-10T23:48:37.764Z,40.80
2018-06-10T23:51:05.859Z,41.30
2018-06-10T23:53:33.942Z,41.60
2018-06-10T23:56:02.052Z,42.10
2018-06-10T23:58:30.146Z,42.20
